createdAt,value
2022-11-01T00:00:32.966Z,4.65
2022-11-01T00:02:34.647Z,5.55
2022-11-01T00:04:36.320Z,4.70
2022-11-01T00:06:38.701Z,3.78
2022-11-01T00:08:40.306Z,7.00
2022-11-01T00:10:41.900Z,4.57
2022-11-01T00:12:44.500Z,3.80
2022-11-01T00:14:46.153Z,4.45
2022-11-01T00:16:48.237Z,4.45
2022-11-01T00:18:50.180Z,4.78
2022-11-01T00:20:51.798Z,3.47
2022-11-01T00:22:53.439Z,5.20
2022-11-01T00:24:55.240Z,4.18
2022-11-01T00:26:57.452Z,3.38
2022-11-01T00:28:59.077Z,3.67
2022-11-01T00:31:01.461Z,4.90
2022-11-01T00:33:03.513Z,3.58
2022-11-01T00:35:05.585Z,5.13
2022-11-01T00:37:07.194Z,4.82
2022-11-01T00:39:13.828Z,3.70
2022-11-01T00:41:15.598Z,4.25
2022-11-01T00:45:23.956Z,5.10
2022-11-01T00:47:25.580Z,4.22
2022-11-01T00:49:27.197Z,3.95
2022-11-01T00:51:28.815Z,5.75
2022-11-01T00:53:30.634Z,3.03
2022-11-01T00:55:32.245Z,3.20
2022-11-01T00:57:33.822Z,6.00
2022-11-01T00:59:40.633Z,3.78
2022-11-01T01:01:42.883Z,3.97
2022-11-01T01:03:44.605Z,8.70
2022-11-01T01:05:51.874Z,3.42
2022-11-01T01:07:54.111Z,3.95
2022-11-01T01:09:55.710Z,4.28
2022-11-01T01:11:58.759Z,3.33
2022-11-01T01:14:00.358Z,3.80
2022-11-01T01:16:08.163Z,5.75
2022-11-01T01:18:11.313Z,4.75
2022-11-01T01:20:14.149Z,3.35
2022-11-01T01:22:15.904Z,3.25
2022-11-01T01:24:17.490Z,3.67
2022-11-01T01:26:19.106Z,3.35
2022-11-01T01:28:20.710Z,4.80
2022-11-01T01:30:22.346Z,3.85
2022-11-01T01:32:24.774Z,4.05
2022-11-01T01:34:26.362Z,4.82
2022-11-01T01:36:28.021Z,6.25
2022-11-01T01:38:29.950Z,4.45
2022-11-01T01:40:32.883Z,3.17
2022-11-01T01:42:37.759Z,4.05
2022-11-01T01:44:51.597Z,4.65
2022-11-01T01:46:53.270Z,4.20
2022-11-01T01:48:58.880Z,3.50
2022-11-01T01:51:04.377Z,5.93
2022-11-01T01:53:28.087Z,4.85
2022-11-01T01:55:48.714Z,4.47
2022-11-01T01:57:51.516Z,3.63
2022-11-01T01:59:53.594Z,3.65
2022-11-01T02:01:55.406Z,4.40
2022-11-01T02:03:57.358Z,3.45
2022-11-01T02:06:17.256Z,2.95
2022-11-01T02:08:27.593Z,3.30
2022-11-01T02:10:31.123Z,3.63
2022-11-01T02:12:36.255Z,6.45
2022-11-01T02:14:42.123Z,3.05
2022-11-01T02:16:58.187Z,3.60
2022-11-01T02:19:37.453Z,3.90
2022-11-01T02:21:57.005Z,3.72
2022-11-01T02:24:09.038Z,3.60
2022-11-01T02:26:39.016Z,3.10
2022-11-01T02:28:59.370Z,4.95
2022-11-01T02:31:18.321Z,6.43
2022-11-01T02:33:52.803Z,4.45
2022-11-01T02:36:06.049Z,3.42
2022-11-01T02:38:14.762Z,4.57
2022-11-01T02:40:26.549Z,3.58
2022-11-01T02:42:35.695Z,3.17
2022-11-01T02:44:45.122Z,3.75
2022-11-01T02:47:03.229Z,4.40
2022-11-01T02:49:06.625Z,3.42
2022-11-01T02:51:08.341Z,4.07
2022-11-01T02:53:10.723Z,3.50
2022-11-01T02:55:34.096Z,4.65
2022-11-01T02:57:41.167Z,5.05
2022-11-01T02:59:45.271Z,2.60
2022-11-01T03:02:07.277Z,3.15
2022-11-01T03:04:09.008Z,3.22
2022-11-01T03:06:33.058Z,4.10
2022-11-01T03:08:34.620Z,3.75
2022-11-01T03:10:46.453Z,3.53
2022-11-01T03:13:10.408Z,3.03
2022-11-01T03:15:25.892Z,3.00
2022-11-01T03:17:44.116Z,4.47
2022-11-01T03:19:51.585Z,3.08
2022-11-01T03:22:31.148Z,3.15
2022-11-01T03:24:48.305Z,3.65
2022-11-01T03:26:58.770Z,2.72
2022-11-01T03:29:06.576Z,3.85
2022-11-01T03:31:31.487Z,4.00
2022-11-01T03:33:41.118Z,2.88
2022-11-01T03:35:47.021Z,3.28
2022-11-01T03:37:51.589Z,3.00
2022-11-01T03:39:55.141Z,3.47
2022-11-01T03:42:01.981Z,3.40
2022-11-01T03:44:04.860Z,4.00
2022-11-01T03:46:07.273Z,3.17
2022-11-01T03:48:10.370Z,3.50
2022-11-01T03:50:19.307Z,2.78
2022-11-01T03:52:20.912Z,3.67
2022-11-01T03:54:22.804Z,3.67
2022-11-01T03:56:24.761Z,3.30
2022-11-01T03:58:41.399Z,3.00
2022-11-01T04:00:45.859Z,3.45
2022-11-01T04:02:49.185Z,2.90
2022-11-01T04:04:50.824Z,3.15
2022-11-01T04:06:52.425Z,3.00
2022-11-01T04:08:54.024Z,4.40
2022-11-01T04:10:55.614Z,3.10
2022-11-01T04:12:57.825Z,3.55
2022-11-01T04:15:18.070Z,2.50
2022-11-01T04:17:38.521Z,2.33
2022-11-01T04:19:58.961Z,2.72
2022-11-01T04:22:00.577Z,2.33
2022-11-01T04:24:02.267Z,2.63
2022-11-01T04:26:05.565Z,2.78
2022-11-01T04:28:07.166Z,3.13
2022-11-01T04:30:09.084Z,4.57
2022-11-01T04:32:10.710Z,2.60
2022-11-01T04:34:12.310Z,3.55
2022-11-01T04:36:14.004Z,3.50
2022-11-01T04:38:16.041Z,2.53
2022-11-01T04:40:17.779Z,3.42
2022-11-01T04:42:19.404Z,2.40
2022-11-01T04:44:21.031Z,2.42
2022-11-01T04:46:23.154Z,4.30
2022-11-01T04:48:26.376Z,3.85
2022-11-01T04:50:28.111Z,2.80
2022-11-01T04:52:29.729Z,3.22
2022-11-01T04:54:33.363Z,2.67
2022-11-01T04:56:35.022Z,2.60
2022-11-01T04:58:41.385Z,2.78
2022-11-01T05:00:47.022Z,4.77
2022-11-01T05:02:49.378Z,2.95
2022-11-01T05:04:51.005Z,2.55
2022-11-01T05:06:52.602Z,4.15
2022-11-01T05:08:54.660Z,3.25
2022-11-01T05:10:56.953Z,2.78
2022-11-01T05:12:58.814Z,2.55
2022-11-01T05:15:00.588Z,2.72
2022-11-01T05:17:02.395Z,3.28
2022-11-01T05:19:04.060Z,4.18
2022-11-01T05:21:05.773Z,2.67
2022-11-01T05:23:07.372Z,2.88
2022-11-01T05:25:09.414Z,2.63
2022-11-01T05:27:11.227Z,2.50
2022-11-01T05:29:24.572Z,2.78
2022-11-01T05:31:34.072Z,3.22
2022-11-01T05:33:35.716Z,2.10
2022-11-01T05:35:37.360Z,2.35
2022-11-01T05:37:38.958Z,2.40
2022-11-01T05:39:40.625Z,6.78
2022-11-01T05:41:42.223Z,9.60
2022-11-01T05:43:43.795Z,3.67
2022-11-01T05:45:45.450Z,3.78
2022-11-01T05:47:47.047Z,7.85
2022-11-01T05:49:48.645Z,6.43
2022-11-01T05:51:50.588Z,6.72
2022-11-01T05:53:52.229Z,9.75
2022-11-01T05:55:56.986Z,5.03
2022-11-01T05:57:59.080Z,8.70
2022-11-01T06:00:00.988Z,12.32
2022-11-01T06:02:02.804Z,7.38
2022-11-01T06:04:04.644Z,7.88
2022-11-01T06:06:06.535Z,6.78
2022-11-01T06:08:08.921Z,6.07
2022-11-01T06:10:10.702Z,7.35
2022-11-01T06:12:12.334Z,8.98
2022-11-01T06:14:13.978Z,10.10
2022-11-01T06:16:15.582Z,4.50
2022-11-01T06:18:17.165Z,7.85
2022-11-01T06:20:18.792Z,8.40
2022-11-01T06:22:20.374Z,5.97
2022-11-01T06:24:23.104Z,5.53
2022-11-01T06:26:24.875Z,15.73
2022-11-01T06:28:26.663Z,7.68
2022-11-01T06:30:28.570Z,8.90
2022-11-01T06:32:30.183Z,6.60
2022-11-01T06:34:31.936Z,6.20
2022-11-01T06:36:33.522Z,7.78
2022-11-01T06:38:35.427Z,5.45
2022-11-01T06:40:37.455Z,3.97
2022-11-01T06:42:43.908Z,5.28
2022-11-01T06:44:48.250Z,7.63
2022-11-01T06:46:50.022Z,4.35
2022-11-01T06:48:51.618Z,8.63
2022-11-01T06:50:55.570Z,7.75
2022-11-01T06:53:00.971Z,8.10
2022-11-01T06:55:02.578Z,2.28
2022-11-01T06:57:04.251Z,7.25
2022-11-01T06:59:06.401Z,2.58
2022-11-01T07:01:08.145Z,2.13
2022-11-01T07:03:13.504Z,5.25
2022-11-01T07:05:15.381Z,2.35
2022-11-01T07:07:17.241Z,3.33
2022-11-01T07:09:18.857Z,3.88
2022-11-01T07:11:20.693Z,5.57
2022-11-01T07:13:22.382Z,4.82
2022-11-01T07:15:23.970Z,4.55
2022-11-01T07:17:26.435Z,4.40
2022-11-01T07:19:28.086Z,3.17
2022-11-01T07:21:29.666Z,2.08
2022-11-01T07:23:31.688Z,3.88
2022-11-01T07:25:33.353Z,2.95
2022-11-01T07:27:36.530Z,4.68
2022-11-01T07:29:41.486Z,3.03
2022-11-01T07:31:43.178Z,8.85
2022-11-01T07:33:44.813Z,4.93
2022-11-01T07:35:47.488Z,7.32
2022-11-01T07:37:49.102Z,7.00
2022-11-01T07:39:50.970Z,4.90
2022-11-01T07:41:54.129Z,5.03
2022-11-01T07:43:55.898Z,6.18
2022-11-01T07:46:00.930Z,5.63
2022-11-01T07:48:06.278Z,2.75
2022-11-01T07:50:08.368Z,8.45
2022-11-01T07:52:09.947Z,9.45
2022-11-01T07:54:11.632Z,10.68
2022-11-01T07:56:13.376Z,7.97
2022-11-01T07:58:16.260Z,14.30
2022-11-01T08:00:17.977Z,14.93
2022-11-01T08:02:19.673Z,8.57
2022-11-01T08:04:21.342Z,7.88
2022-11-01T08:08:29.552Z,7.05
2022-11-01T08:10:32.231Z,11.45
2022-11-01T08:12:34.016Z,24.92
2022-11-01T08:14:35.617Z,20.05
2022-11-01T08:16:37.202Z,23.88
2022-11-01T08:18:38.808Z,9.60
2022-11-01T08:20:41.143Z,7.30
2022-11-01T08:22:42.799Z,8.93
2022-11-01T08:24:44.408Z,4.10
2022-11-01T08:26:46.255Z,4.85
2022-11-01T08:28:47.850Z,9.52
2022-11-01T08:30:50.020Z,9.80
2022-11-01T08:33:01.655Z,6.07
2022-11-01T08:35:03.982Z,8.60
2022-11-01T08:37:06.546Z,6.35
2022-11-01T08:41:14.690Z,5.80
2022-11-01T08:43:16.858Z,9.32
2022-11-01T08:45:18.909Z,7.53
2022-11-01T08:47:20.629Z,8.75
2022-11-01T08:49:22.535Z,7.28
2022-11-01T08:51:25.970Z,4.25
2022-11-01T08:53:27.589Z,3.33
2022-11-01T08:55:31.575Z,4.07
2022-11-01T08:57:35.823Z,4.70
2022-11-01T08:59:37.427Z,5.07
2022-11-01T09:01:39.188Z,7.60
2022-11-01T09:03:40.931Z,6.28
2022-11-01T09:05:42.769Z,13.05
2022-11-01T09:07:44.499Z,10.75
2022-11-01T09:09:46.516Z,13.63
2022-11-01T09:11:48.140Z,12.00
2022-11-01T09:13:50.202Z,11.60
2022-11-01T09:15:53.018Z,9.73
2022-11-01T09:17:55.014Z,11.73
2022-11-01T09:19:56.647Z,20.42
2022-11-01T09:21:58.264Z,15.63
2022-11-01T09:23:59.957Z,9.00
2022-11-01T09:26:06.785Z,15.52
2022-11-01T09:28:08.364Z,15.15
2022-11-01T09:30:10.503Z,17.77
2022-11-01T09:32:12.108Z,11.43
2022-11-01T09:34:13.746Z,12.18
2022-11-01T09:36:15.400Z,15.15
2022-11-01T09:38:17.010Z,13.82
2022-11-01T09:40:19.042Z,9.60
2022-11-01T09:42:35.551Z,13.10
2022-11-01T09:44:44.307Z,15.63
2022-11-01T09:47:02.417Z,8.82
2022-11-01T09:49:06.952Z,11.77
2022-11-01T09:51:16.369Z,13.70
2022-11-01T09:53:21.593Z,17.15
2022-11-01T09:55:49.072Z,11.13
2022-11-01T09:58:04.848Z,14.05
2022-11-01T10:00:18.739Z,15.05
2022-11-01T10:02:32.734Z,18.02
2022-11-01T10:04:53.809Z,16.25
2022-11-01T10:09:42.003Z,9.82
2022-11-01T10:11:48.942Z,5.80
2022-11-01T10:14:29.623Z,7.97
2022-11-01T10:16:41.867Z,8.43
2022-11-01T10:18:52.675Z,6.18
2022-11-01T10:21:00.968Z,4.95
2022-11-01T10:23:04.958Z,5.38
2022-11-01T10:25:29.802Z,11.05
2022-11-01T10:27:39.945Z,4.18
2022-11-01T10:29:58.695Z,1.65
2022-11-01T10:32:02.663Z,2.30
2022-11-01T10:34:14.858Z,6.78
2022-11-01T10:36:23.591Z,3.38
2022-11-01T10:39:10.853Z,5.50
2022-11-01T10:41:09.685Z,3.50
2022-11-01T10:43:17.186Z,3.65
2022-11-01T10:45:20.545Z,2.60
2022-11-01T10:47:24.302Z,2.38
2022-11-01T10:50:00.643Z,3.28
2022-11-01T10:52:02.094Z,4.22
2022-11-01T10:54:07.254Z,4.63
2022-11-01T10:56:12.316Z,2.50
2022-11-01T10:58:36.167Z,2.38
2022-11-01T11:00:41.726Z,6.63
2022-11-01T11:02:47.765Z,2.65
2022-11-01T11:04:50.061Z,2.75
2022-11-01T11:06:52.487Z,2.53
2022-11-01T11:08:56.551Z,9.52
2022-11-01T11:11:03.336Z,5.22
2022-11-01T11:13:07.160Z,2.88
2022-11-01T11:15:19.228Z,7.07
2022-11-01T11:17:31.414Z,10.60
2022-11-01T11:19:35.594Z,5.75
2022-11-01T11:21:37.837Z,7.55
2022-11-01T11:23:45.297Z,11.43
2022-11-01T11:25:47.031Z,11.13
2022-11-01T11:27:53.222Z,30.83
2022-11-01T11:30:05.218Z,21.75
2022-11-01T11:32:14.866Z,20.10
2022-11-01T11:34:26.005Z,29.30
2022-11-01T11:36:41.984Z,18.38
2022-11-01T11:38:46.374Z,24.35
2022-11-01T11:40:48.087Z,26.70
2022-11-01T11:42:51.343Z,37.78
2022-11-01T11:45:07.746Z,22.65
2022-11-01T11:47:34.528Z,18.98
2022-11-01T11:49:37.492Z,21.20
2022-11-01T11:51:39.322Z,24.13
2022-11-01T11:53:40.928Z,25.25
2022-11-01T11:55:48.208Z,20.80
2022-11-01T11:57:52.326Z,18.60
2022-11-01T12:00:05.370Z,16.25
2022-11-01T12:02:20.137Z,23.40
2022-11-01T12:04:23.679Z,14.90
2022-11-01T12:06:29.769Z,20.42
2022-11-01T12:08:45.277Z,16.20
2022-11-01T12:10:46.891Z,18.98
2022-11-01T12:12:52.564Z,14.55
2022-11-01T12:14:55.627Z,21.80
2022-11-01T12:16:57.292Z,19.33
2022-11-01T12:19:01.173Z,13.50
2022-11-01T12:21:02.860Z,15.63
2022-11-01T12:23:07.958Z,14.23
2022-11-01T12:25:15.583Z,17.67
2022-11-01T12:27:25.895Z,12.25
2022-11-01T12:29:30.496Z,12.40
2022-11-01T12:31:32.614Z,13.25
2022-11-01T12:33:41.367Z,14.57
2022-11-01T12:35:45.640Z,8.48
2022-11-01T12:37:50.444Z,7.03
2022-11-01T12:40:18.519Z,21.92
2022-11-01T12:42:28.516Z,12.45
2022-11-01T12:44:37.648Z,16.15
2022-11-01T12:46:47.961Z,14.30
2022-11-01T12:48:59.729Z,9.50
2022-11-01T12:51:13.201Z,12.05
2022-11-01T12:53:32.547Z,7.95
2022-11-01T12:55:42.265Z,15.55
2022-11-01T12:57:44.614Z,8.65
2022-11-01T12:59:48.322Z,12.38
2022-11-01T13:02:08.419Z,6.35
2022-11-01T13:04:31.378Z,11.03
2022-11-01T13:07:08.355Z,11.48
2022-11-01T13:09:27.605Z,12.85
2022-11-01T13:11:52.762Z,5.97
2022-11-01T13:14:12.915Z,8.15
2022-11-01T13:16:23.967Z,7.30
2022-11-01T13:21:10.647Z,5.35
2022-11-01T13:23:34.457Z,4.00
2022-11-01T13:25:43.819Z,3.67
2022-11-01T13:28:12.446Z,4.88
2022-11-01T13:30:20.912Z,3.45
2022-11-01T13:32:47.607Z,6.60
2022-11-01T13:35:26.438Z,3.38
2022-11-01T13:38:01.050Z,5.57
2022-11-01T13:40:28.575Z,2.53
2022-11-01T13:42:37.251Z,3.05
2022-11-01T13:44:45.129Z,5.18
2022-11-01T13:46:54.060Z,3.65
2022-11-01T13:49:10.684Z,3.13
2022-11-01T13:51:14.993Z,5.55
2022-11-01T13:53:25.571Z,4.13
2022-11-01T13:55:56.505Z,4.50
2022-11-01T13:57:59.348Z,3.03
2022-11-01T14:00:04.958Z,7.38
2022-11-01T14:02:28.238Z,2.00
2022-11-01T14:04:39.379Z,2.20
2022-11-01T14:06:43.214Z,3.72
2022-11-01T14:08:48.491Z,6.05
2022-11-01T14:10:50.821Z,2.47
2022-11-01T14:13:07.474Z,2.88
2022-11-01T14:15:11.782Z,3.05
2022-11-01T14:17:16.419Z,3.10
2022-11-01T14:19:21.410Z,3.00
2022-11-01T14:21:39.634Z,2.65
2022-11-01T14:23:41.173Z,3.60
2022-11-01T14:25:42.803Z,6.10
2022-11-01T14:27:50.581Z,2.28
2022-11-01T14:29:54.389Z,3.58
2022-11-01T14:31:56.613Z,2.10
2022-11-01T14:34:01.958Z,1.52
2022-11-01T14:36:04.449Z,2.08
2022-11-01T14:38:18.365Z,2.95
2022-11-01T14:40:20.382Z,4.95
2022-11-01T14:42:27.160Z,18.25
2022-11-01T14:44:38.221Z,16.73
2022-11-01T14:49:15.527Z,6.20
2022-11-01T14:51:28.026Z,5.75
2022-11-01T14:53:33.934Z,7.63
2022-11-01T14:55:37.329Z,10.35
2022-11-01T14:57:39.043Z,10.73
2022-11-01T14:59:40.742Z,10.75
2022-11-01T15:01:44.762Z,7.97
2022-11-01T15:03:58.575Z,8.60
2022-11-01T15:06:00.402Z,10.82
2022-11-01T15:08:02.474Z,20.73
2022-11-01T15:10:14.589Z,9.73
2022-11-01T15:12:16.215Z,8.00
2022-11-01T15:14:34.790Z,5.13
2022-11-01T15:16:36.815Z,3.28
2022-11-01T15:18:57.420Z,13.00
2022-11-01T15:21:00.705Z,12.20
2022-11-01T15:23:07.836Z,19.30
2022-11-01T15:25:20.989Z,7.03
2022-11-01T15:27:24.593Z,14.52
2022-11-01T15:29:26.563Z,6.93
2022-11-01T15:31:28.922Z,11.25
2022-11-01T15:33:31.561Z,11.02
2022-11-01T15:35:33.350Z,11.90
2022-11-01T15:37:36.756Z,11.13
2022-11-01T15:39:38.375Z,9.85
2022-11-01T15:41:40.021Z,10.63
2022-11-01T15:43:41.681Z,18.23
2022-11-01T15:45:43.839Z,15.98
2022-11-01T15:47:46.612Z,10.63
2022-11-01T15:50:02.572Z,12.60
2022-11-01T15:52:26.164Z,14.80
2022-11-01T15:54:31.816Z,12.07
2022-11-01T15:56:48.946Z,15.48
2022-11-01T16:01:13.436Z,14.27
2022-11-01T16:03:28.619Z,8.05
2022-11-01T16:05:59.731Z,13.15
2022-11-01T16:08:04.755Z,12.05
2022-11-01T16:10:09.189Z,10.23
2022-11-01T16:12:23.601Z,14.32
2022-11-01T16:14:37.514Z,16.60
2022-11-01T16:16:56.790Z,17.30
2022-11-01T16:18:58.480Z,10.05
2022-11-01T16:21:07.295Z,14.02
2022-11-01T16:23:14.508Z,19.05
2022-11-01T16:25:22.177Z,14.85
2022-11-01T16:27:28.141Z,17.90
2022-11-01T16:29:47.900Z,37.40
2022-11-01T16:32:09.540Z,20.98
2022-11-01T16:34:24.508Z,15.05
2022-11-01T16:36:36.347Z,17.77
2022-11-01T16:38:43.456Z,10.43
2022-11-01T16:40:45.119Z,11.93
2022-11-01T16:42:48.716Z,11.25
2022-11-01T16:44:55.262Z,20.20
2022-11-01T16:46:56.886Z,19.60
2022-11-01T16:49:00.993Z,20.52
2022-11-01T16:51:03.923Z,16.02
2022-11-01T16:53:10.031Z,18.73
2022-11-01T16:55:12.694Z,13.95
2022-11-01T16:57:28.893Z,17.17
2022-11-01T16:59:38.121Z,18.00
2022-11-01T17:01:39.995Z,14.23
2022-11-01T17:03:41.795Z,26.90
2022-11-01T17:05:43.441Z,14.68
2022-11-01T17:07:45.647Z,12.63
2022-11-01T17:09:47.294Z,14.10
2022-11-01T17:11:51.713Z,15.07
2022-11-01T17:13:53.583Z,13.85
2022-11-01T17:15:55.225Z,13.07
2022-11-01T17:17:56.933Z,19.45
2022-11-01T17:20:02.147Z,13.20
2022-11-01T17:22:07.754Z,13.07
2022-11-01T17:24:09.839Z,13.70
2022-11-01T17:26:13.070Z,10.30
2022-11-01T17:28:14.951Z,11.27
2022-11-01T17:30:17.583Z,7.28
2022-11-01T17:32:19.193Z,8.68
2022-11-01T17:34:20.920Z,7.68
2022-11-01T17:36:22.551Z,12.48
2022-11-01T17:38:31.878Z,13.77
2022-11-01T17:40:33.858Z,17.77
2022-11-01T17:42:35.694Z,9.82
2022-11-01T17:44:37.380Z,11.48
2022-11-01T17:46:39.945Z,13.55
2022-11-01T17:48:41.700Z,14.90
2022-11-01T17:50:43.605Z,14.30
2022-11-01T17:52:47.151Z,5.53
2022-11-01T17:54:48.808Z,15.57
2022-11-01T17:56:51.183Z,13.57
2022-11-01T17:58:53.737Z,14.73
2022-11-01T18:00:55.630Z,8.63
2022-11-01T18:02:58.020Z,14.73
2022-11-01T18:04:59.698Z,25.50
2022-11-01T18:07:03.027Z,16.50
2022-11-01T18:09:18.051Z,10.02
2022-11-01T18:11:31.716Z,6.30
2022-11-01T18:14:13.806Z,14.60
2022-11-01T18:16:38.890Z,11.45
2022-11-01T18:19:00.232Z,11.32
2022-11-01T18:21:12.166Z,9.00
2022-11-01T18:23:17.780Z,13.00
2022-11-01T18:25:36.540Z,9.30
2022-11-01T18:27:38.789Z,6.18
2022-11-01T18:29:48.078Z,11.95
2022-11-01T18:32:13.278Z,7.57
2022-11-01T18:34:40.899Z,12.23
2022-11-01T18:36:53.531Z,4.50
2022-11-01T18:39:05.132Z,6.65
2022-11-01T18:41:13.263Z,12.73
2022-11-01T18:43:16.502Z,6.78
2022-11-01T18:45:30.407Z,5.82
2022-11-01T18:47:42.094Z,5.50
2022-11-01T18:49:43.684Z,5.20
2022-11-01T18:51:46.401Z,11.65
2022-11-01T18:53:54.657Z,5.38
2022-11-01T18:56:16.062Z,11.77
2022-11-01T18:58:27.459Z,6.88
2022-11-01T19:00:29.064Z,7.95
2022-11-01T19:02:32.928Z,10.77
2022-11-01T19:04:36.189Z,10.23
2022-11-01T19:06:37.833Z,5.97
2022-11-01T19:08:39.564Z,12.70
2022-11-01T19:10:42.187Z,6.28
2022-11-01T19:12:47.520Z,6.32
2022-11-01T19:14:59.546Z,7.13
2022-11-01T19:17:01.288Z,13.30
2022-11-01T19:19:02.953Z,10.30
2022-11-01T19:21:14.367Z,8.55
2022-11-01T19:23:20.769Z,10.13
2022-11-01T19:25:28.571Z,8.45
2022-11-01T19:27:30.395Z,8.40
2022-11-01T19:29:34.196Z,5.45
2022-11-01T19:31:39.517Z,7.32
2022-11-01T19:33:44.632Z,8.18
2022-11-01T19:35:49.467Z,3.92
2022-11-01T19:37:53.828Z,5.78
2022-11-01T19:39:56.776Z,6.18
2022-11-01T19:42:01.120Z,8.32
2022-11-01T19:44:13.894Z,3.33
2022-11-01T19:46:18.575Z,6.95
2022-11-01T19:48:28.116Z,4.78
2022-11-01T19:50:43.661Z,5.55
2022-11-01T19:52:47.509Z,4.80
2022-11-01T19:54:51.152Z,6.07
2022-11-01T19:56:59.027Z,6.68
2022-11-01T19:59:03.608Z,4.95
2022-11-01T20:01:08.488Z,7.68
2022-11-01T20:03:24.575Z,4.45
2022-11-01T20:05:30.590Z,4.30
2022-11-01T20:07:32.423Z,4.82
2022-11-01T20:09:41.042Z,2.90
2022-11-01T20:11:42.690Z,10.85
2022-11-01T20:13:44.342Z,12.40
2022-11-01T20:15:47.246Z,6.05
2022-11-01T20:17:48.907Z,5.75
2022-11-01T20:19:50.523Z,3.78
2022-11-01T20:21:52.281Z,6.97
2022-11-01T20:23:54.273Z,3.90
2022-11-01T20:25:55.890Z,5.13
2022-11-01T20:27:57.498Z,7.30
2022-11-01T20:29:59.140Z,8.77
2022-11-01T20:32:00.779Z,2.40
2022-11-01T20:34:02.835Z,4.60
2022-11-01T20:36:10.841Z,2.85
2022-11-01T20:38:13.112Z,5.20
2022-11-01T20:40:15.177Z,4.70
2022-11-01T20:42:16.773Z,4.30
2022-11-01T20:44:18.532Z,3.33
2022-11-01T20:46:20.159Z,3.58
2022-11-01T20:48:21.795Z,3.28
2022-11-01T20:50:23.569Z,4.07
2022-11-01T20:52:40.650Z,2.08
2022-11-01T20:54:42.480Z,6.22
2022-11-01T20:56:44.203Z,3.80
2022-11-01T20:58:45.799Z,6.10
2022-11-01T21:00:47.495Z,3.55
2022-11-01T21:02:49.988Z,7.18
2022-11-01T21:05:00.886Z,3.22
2022-11-01T21:07:05.340Z,3.92
2022-11-01T21:09:34.458Z,3.13
2022-11-01T21:11:45.889Z,4.97
2022-11-01T21:13:48.798Z,1.75
2022-11-01T21:15:52.134Z,2.08
2022-11-01T21:18:22.976Z,5.32
2022-11-01T21:20:25.449Z,2.72
2022-11-01T21:22:27.427Z,1.70
2022-11-01T21:24:30.384Z,5.60
2022-11-01T21:26:35.858Z,1.92
2022-11-01T21:28:42.953Z,4.32
2022-11-01T21:30:44.540Z,6.85
2022-11-01T21:32:47.182Z,3.97
2022-11-01T21:34:49.369Z,1.48
2022-11-01T21:36:52.114Z,4.13
2022-11-01T21:39:03.296Z,2.45
2022-11-01T21:41:31.573Z,2.25
2022-11-01T21:43:35.113Z,1.95
2022-11-01T21:45:37.002Z,3.80
2022-11-01T21:47:43.145Z,7.10
2022-11-01T21:49:47.397Z,1.88
2022-11-01T21:51:48.989Z,2.45
2022-11-01T21:53:50.634Z,1.35
2022-11-01T21:55:52.244Z,1.88
2022-11-01T21:57:53.849Z,4.80
2022-11-01T21:59:55.467Z,4.53
2022-11-01T22:01:58.283Z,2.92
2022-11-01T22:03:59.967Z,2.92
2022-11-01T22:06:01.595Z,1.90
2022-11-01T22:08:03.328Z,6.80
2022-11-01T22:10:05.470Z,3.53
2022-11-01T22:12:07.938Z,3.10
2022-11-01T22:14:10.136Z,2.47
2022-11-01T22:16:11.930Z,1.45
2022-11-01T22:18:13.835Z,2.17
2022-11-01T22:20:15.560Z,1.45
2022-11-01T22:22:17.150Z,2.80
2022-11-01T22:24:18.773Z,1.65
2022-11-01T22:26:20.641Z,2.78
2022-11-01T22:28:22.231Z,1.63
2022-11-01T22:30:23.861Z,4.00
2022-11-01T22:32:25.491Z,1.60
2022-11-01T22:34:27.127Z,1.33
2022-11-01T22:36:30.799Z,3.30
2022-11-01T22:38:38.783Z,1.75
2022-11-01T22:40:40.391Z,1.25
2022-11-01T22:42:42.101Z,1.05
2022-11-01T22:44:48.302Z,1.90
2022-11-01T22:46:58.003Z,6.22
2022-11-01T22:49:26.651Z,1.67
2022-11-01T22:51:39.000Z,2.22
2022-11-01T22:53:40.827Z,1.48
2022-11-01T22:55:43.842Z,2.20
2022-11-01T22:58:19.354Z,2.88
2022-11-01T23:00:23.976Z,3.33
2022-11-01T23:02:37.830Z,2.20
2022-11-01T23:04:39.482Z,1.92
2022-11-01T23:06:42.627Z,1.70
2022-11-01T23:08:44.242Z,2.20
2022-11-01T23:10:49.917Z,1.60
2022-11-01T23:13:17.797Z,0.95
2022-11-01T23:15:28.593Z,2.13
2022-11-01T23:17:35.906Z,1.10
2022-11-01T23:21:40.552Z,1.27
2022-11-01T23:23:44.300Z,2.38
2022-11-01T23:25:46.194Z,1.05
2022-11-01T23:27:47.799Z,1.73
2022-11-01T23:29:51.972Z,2.53
2022-11-01T23:31:53.574Z,3.83
2022-11-01T23:33:55.675Z,1.02
2022-11-01T23:35:59.382Z,1.77
2022-11-01T23:38:01.072Z,2.00
2022-11-01T23:40:09.239Z,1.52
2022-11-01T23:42:20.373Z,1.10
2022-11-01T23:44:29.663Z,2.10
2022-11-01T23:46:31.261Z,2.10
2022-11-01T23:48:33.583Z,0.90
2022-11-01T23:50:37.266Z,1.08
2022-11-01T23:52:44.192Z,1.10
2022-11-01T23:54:45.926Z,2.35
2022-11-01T23:56:47.570Z,3.17
2022-11-01T23:58:58.060Z,2.67
